createdAt,value
2018-08-02T00:00:19.938Z,99.99
2018-08-02T00:01:19.937Z,99.99
2018-08-02T00:02:19.682Z,99.99
2018-08-02T00:03:19.938Z,99.99
2018-08-02T00:04:19.988Z,99.99
2018-08-02T00:05:19.964Z,99.99
2018-08-02T00:06:19.704Z,99.99
2018-08-02T00:07:19.954Z,99.99
2018-08-02T00:08:19.947Z,99.99
2018-08-02T00:09:19.689Z,99.99
2018-08-02T00:10:19.957Z,99.99
2018-08-02T00:11:19.986Z,99.99
2018-08-02T00:12:19.952Z,99.99
2018-08-02T00:13:19.957Z,99.99
2018-08-02T00:14:19.959Z,99.99
2018-08-02T00:15:19.960Z,99.99
2018-08-02T00:16:19.979Z,99.99
2018-08-02T00:17:19.712Z,99.99
2018-08-02T00:18:19.969Z,99.99
2018-08-02T00:19:19.714Z,99.99
2018-08-02T00:20:19.975Z,99.99
2018-08-02T00:21:19.716Z,99.99
2018-08-02T00:22:19.978Z,99.99
2018-08-02T00:23:19.982Z,99.99
2018-08-02T00:24:19.985Z,99.99
2018-08-02T00:25:19.982Z,99.99
2018-08-02T00:26:19.988Z,99.99
2018-08-02T00:27:20.003Z,99.99
2018-08-02T00:28:19.991Z,99.99
2018-08-02T00:29:19.747Z,99.99
2018-08-02T00:30:19.990Z,99.99
2018-08-02T00:31:19.743Z,99.99
2018-08-02T00:32:19.996Z,99.99
2018-08-02T00:33:20.011Z,99.99
2018-08-02T00:34:20.018Z,99.99
2018-08-02T00:35:20.012Z,99.99
2018-08-02T00:36:19.753Z,99.99
2018-08-02T00:37:20.017Z,99.99
2018-08-02T00:38:20.018Z,99.99
2018-08-02T00:39:19.763Z,99.99
2018-08-02T00:40:19.760Z,99.99
2018-08-02T00:41:20.027Z,99.99
2018-08-02T00:42:20.043Z,99.99
2018-08-02T00:43:19.772Z,99.99
2018-08-02T00:44:20.027Z,99.99
2018-08-02T00:45:19.778Z,99.99
2018-08-02T00:46:20.039Z,99.99
2018-08-02T00:47:20.039Z,99.99
2018-08-02T00:48:19.781Z,99.99
2018-08-02T00:49:20.043Z,99.99
2018-08-02T00:50:20.049Z,99.99
2018-08-02T00:51:20.060Z,99.99
2018-08-02T00:52:19.807Z,99.99
2018-08-02T00:53:20.057Z,99.99
2018-08-02T00:54:20.055Z,99.99
2018-08-02T00:55:20.078Z,99.99
2018-08-02T00:56:20.076Z,99.99
2018-08-02T00:57:19.804Z,99.99
2018-08-02T00:58:20.061Z,99.99
2018-08-02T00:59:20.077Z,99.99
2018-08-02T01:00:20.072Z,99.99
2018-08-02T01:01:20.078Z,99.99
2018-08-02T01:02:20.078Z,99.99
2018-08-02T01:03:20.077Z,99.99
2018-08-02T01:04:19.830Z,99.99
2018-08-02T01:05:20.084Z,99.99
2018-08-02T01:06:20.081Z,99.99
2018-08-02T01:07:19.829Z,99.99
2018-08-02T01:08:19.829Z,99.99
2018-08-02T01:09:19.830Z,99.99
2018-08-02T01:10:20.092Z,99.99
2018-08-02T01:11:20.123Z,99.99
2018-08-02T01:12:19.838Z,99.99
2018-08-02T01:13:20.097Z,99.99
2018-08-02T01:14:20.098Z,99.99
2018-08-02T01:15:20.097Z,99.99
2018-08-02T01:16:20.097Z,99.99
2018-08-02T01:17:20.101Z,99.99
2018-08-02T01:18:19.854Z,99.99
2018-08-02T01:19:20.113Z,99.99
2018-08-02T01:20:19.856Z,99.99
2018-08-02T01:21:19.874Z,99.99
2018-08-02T01:22:20.112Z,99.99
2018-08-02T01:23:20.125Z,99.99
2018-08-02T01:24:19.873Z,99.99
2018-08-02T01:25:19.867Z,99.99
2018-08-02T01:26:20.129Z,99.99
2018-08-02T01:27:20.126Z,99.99
2018-08-02T01:28:19.878Z,99.99
2018-08-02T01:29:20.151Z,99.99
2018-08-02T01:30:20.135Z,99.99
2018-08-02T01:31:19.886Z,99.99
2018-08-02T01:32:20.206Z,99.99
2018-08-02T01:33:20.151Z,99.99
2018-08-02T01:34:19.886Z,99.99
2018-08-02T01:35:20.171Z,99.99
2018-08-02T01:36:19.891Z,99.99
2018-08-02T01:37:20.170Z,99.99
2018-08-02T01:38:20.167Z,99.99
2018-08-02T01:39:20.162Z,99.99
2018-08-02T01:40:20.162Z,99.99
2018-08-02T01:41:20.163Z,99.99
2018-08-02T01:42:20.162Z,99.99
2018-08-02T01:43:20.167Z,99.99
2018-08-02T01:44:20.170Z,99.99
2018-08-02T01:45:19.914Z,99.99
2018-08-02T01:46:19.921Z,99.99
2018-08-02T01:47:19.918Z,99.99
2018-08-02T01:48:19.928Z,99.99
2018-08-02T01:49:19.928Z,99.99
2018-08-02T01:50:19.927Z,99.99
2018-08-02T01:51:19.931Z,99.99
2018-08-02T01:52:20.192Z,99.99
2018-08-02T01:53:19.932Z,99.99
2018-08-02T01:54:20.199Z,99.99
2018-08-02T01:55:20.192Z,99.99
2018-08-02T01:56:20.210Z,99.99
2018-08-02T01:57:20.211Z,99.99
2018-08-02T01:58:20.209Z,99.99
2018-08-02T01:59:20.212Z,99.99
2018-08-02T02:00:20.214Z,99.99
2018-08-02T02:01:19.959Z,99.99
2018-08-02T02:02:20.229Z,99.99
2018-08-02T02:03:20.218Z,99.99
2018-08-02T02:04:19.961Z,99.99
2018-08-02T02:05:20.219Z,99.99
2018-08-02T02:06:20.224Z,99.99
2018-08-02T02:07:20.225Z,99.99
2018-08-02T02:08:20.235Z,99.99
2018-08-02T02:09:20.235Z,99.99
2018-08-02T02:10:20.242Z,99.99
2018-08-02T02:11:20.244Z,99.99
2018-08-02T02:12:19.982Z,99.99
2018-08-02T02:13:19.988Z,99.99
2018-08-02T02:14:20.249Z,99.99
2018-08-02T02:15:20.260Z,99.99
2018-08-02T02:16:20.252Z,99.99
2018-08-02T02:17:19.989Z,99.99
2018-08-02T02:18:20.246Z,99.99
2018-08-02T02:19:19.994Z,99.99
2018-08-02T02:20:20.265Z,99.99
2018-08-02T02:21:20.000Z,99.99
2018-08-02T02:22:20.262Z,99.99
2018-08-02T02:23:20.021Z,99.99
2018-08-02T02:24:20.271Z,99.99
2018-08-02T02:25:20.280Z,99.99
2018-08-02T02:26:20.287Z,99.99
2018-08-02T02:27:20.292Z,99.99
2018-08-02T02:28:20.038Z,99.99
2018-08-02T02:29:20.289Z,99.99
2018-08-02T02:30:20.042Z,99.99
2018-08-02T02:31:20.291Z,99.99
2018-08-02T02:32:20.030Z,99.99
2018-08-02T02:33:20.291Z,99.99
2018-08-02T02:34:20.295Z,99.99
2018-08-02T02:35:20.291Z,99.99
2018-08-02T02:36:20.296Z,99.99
2018-08-02T02:37:20.310Z,99.99
2018-08-02T02:38:20.296Z,99.99
2018-08-02T02:39:20.354Z,99.99
2018-08-02T02:40:20.298Z,99.99
2018-08-02T02:41:20.046Z,99.99
2018-08-02T02:42:20.307Z,99.99
2018-08-02T02:43:20.055Z,99.99
2018-08-02T02:44:20.312Z,99.99
2018-08-02T02:45:20.315Z,99.99
2018-08-02T02:46:20.314Z,99.99
2018-08-02T02:47:20.069Z,99.99
2018-08-02T02:48:20.064Z,99.99
2018-08-02T02:49:20.062Z,99.99
2018-08-02T02:50:20.338Z,99.99
2018-08-02T02:51:20.321Z,99.99
2018-08-02T02:52:20.083Z,99.99
2018-08-02T02:53:20.333Z,99.99
2018-08-02T02:54:20.079Z,99.99
2018-08-02T02:55:20.342Z,99.99
2018-08-02T02:56:20.339Z,99.99
2018-08-02T02:57:20.348Z,99.99
2018-08-02T02:58:20.345Z,99.99
2018-08-02T02:59:20.371Z,99.99
2018-08-02T03:00:20.092Z,99.99
2018-08-02T03:01:20.111Z,99.99
2018-08-02T03:02:20.350Z,99.99
2018-08-02T03:03:20.358Z,99.99
2018-08-02T03:04:20.358Z,99.99
2018-08-02T03:05:20.359Z,99.99
2018-08-02T03:06:20.381Z,99.99
2018-08-02T03:07:20.362Z,99.99
2018-08-02T03:08:20.376Z,99.99
2018-08-02T03:09:20.378Z,99.99
2018-08-02T03:10:20.121Z,99.99
2018-08-02T03:11:20.119Z,99.99
2018-08-02T03:12:20.128Z,99.99
2018-08-02T03:13:20.388Z,99.99
2018-08-02T03:14:20.139Z,99.99
2018-08-02T03:15:20.381Z,99.99
2018-08-02T03:16:20.141Z,99.99
2018-08-02T03:17:20.385Z,99.99
2018-08-02T03:18:20.139Z,99.99
2018-08-02T03:19:20.154Z,99.99
2018-08-02T03:20:20.424Z,99.99
2018-08-02T03:21:20.465Z,99.99
2018-08-02T03:22:20.471Z,99.99
2018-08-02T03:23:20.403Z,99.99
2018-08-02T03:24:20.414Z,99.99
2018-08-02T03:25:20.149Z,99.99
2018-08-02T03:26:20.422Z,99.99
2018-08-02T03:27:20.427Z,99.99
2018-08-02T03:28:20.414Z,99.99
2018-08-02T03:29:20.411Z,99.99
2018-08-02T03:30:20.441Z,99.99
2018-08-02T03:31:20.425Z,99.99
2018-08-02T03:32:20.435Z,99.99
2018-08-02T03:33:20.169Z,99.99
2018-08-02T03:34:20.434Z,99.99
2018-08-02T03:35:20.172Z,99.99
2018-08-02T03:36:20.436Z,99.99
2018-08-02T03:37:20.438Z,99.99
2018-08-02T03:38:20.180Z,99.99
2018-08-02T03:39:20.437Z,99.99
2018-08-02T03:40:20.207Z,99.99
2018-08-02T03:41:20.447Z,99.99
2018-08-02T03:42:20.446Z,99.99
2018-08-02T03:43:20.458Z,99.99
2018-08-02T03:44:20.589Z,99.99
2018-08-02T03:45:20.193Z,99.99
2018-08-02T03:46:20.216Z,99.99
2018-08-02T03:47:21.248Z,99.99
2018-08-02T03:48:20.199Z,99.99
2018-08-02T03:49:20.464Z,99.99
2018-08-02T03:50:20.216Z,99.99
2018-08-02T03:51:20.220Z,99.99
2018-08-02T03:52:20.217Z,99.99
2018-08-02T03:53:20.275Z,99.99
2018-08-02T03:54:20.492Z,99.99
2018-08-02T03:55:20.480Z,99.99
2018-08-02T03:56:20.485Z,99.99
2018-08-02T03:57:20.222Z,99.99
2018-08-02T03:58:20.552Z,99.99
2018-08-02T03:59:20.485Z,99.99
2018-08-02T04:00:20.236Z,99.99
2018-08-02T04:01:20.245Z,99.99
2018-08-02T04:02:20.486Z,99.99
2018-08-02T04:03:20.520Z,99.99
2018-08-02T04:04:20.503Z,99.99
2018-08-02T04:05:20.506Z,99.99
2018-08-02T04:06:20.500Z,99.99
2018-08-02T04:07:20.502Z,99.99
2018-08-02T04:08:20.255Z,99.99
2018-08-02T04:09:20.514Z,99.99
2018-08-02T04:10:20.556Z,99.99
2018-08-02T04:11:20.516Z,99.99
2018-08-02T04:12:20.255Z,99.99
2018-08-02T04:13:20.276Z,99.99
2018-08-02T04:14:20.517Z,99.99
2018-08-02T04:15:20.272Z,99.99
2018-08-02T04:16:20.521Z,99.99
2018-08-02T04:17:20.520Z,99.99
2018-08-02T04:18:20.280Z,99.99
2018-08-02T04:19:20.530Z,99.99
2018-08-02T04:20:20.542Z,99.99
2018-08-02T04:21:20.544Z,99.99
2018-08-02T04:22:20.541Z,99.99
2018-08-02T04:23:20.544Z,99.99
2018-08-02T04:24:20.285Z,99.99
2018-08-02T04:25:20.289Z,99.99
2018-08-02T04:26:20.298Z,99.99
2018-08-02T04:27:20.299Z,99.99
2018-08-02T04:28:20.554Z,99.99
2018-08-02T04:29:20.296Z,99.99
2018-08-02T04:30:20.311Z,99.99
2018-08-02T04:31:20.566Z,99.99
2018-08-02T04:32:20.567Z,99.99
2018-08-02T04:33:20.309Z,99.99
2018-08-02T04:34:20.576Z,99.99
2018-08-02T04:35:20.314Z,99.99
2018-08-02T04:36:20.576Z,99.99
2018-08-02T04:37:20.591Z,99.99
2018-08-02T04:38:20.578Z,99.99
2018-08-02T04:39:20.573Z,99.99
2018-08-02T04:40:20.342Z,99.99
2018-08-02T04:41:20.329Z,99.99
2018-08-02T04:42:20.583Z,99.99
2018-08-02T04:43:20.333Z,99.99
2018-08-02T04:44:20.608Z,99.99
2018-08-02T04:45:20.600Z,99.99
2018-08-02T04:46:20.349Z,99.99
2018-08-02T04:47:20.601Z,99.99
2018-08-02T04:48:20.853Z,99.99
2018-08-02T04:49:20.601Z,99.99
2018-08-02T04:50:20.361Z,99.99
2018-08-02T04:51:20.354Z,99.99
2018-08-02T04:52:20.352Z,99.99
2018-08-02T04:53:20.608Z,99.99
2018-08-02T04:54:20.376Z,99.99
2018-08-02T04:55:20.358Z,99.99
2018-08-02T04:56:20.648Z,99.99
2018-08-02T04:57:20.362Z,99.99
2018-08-02T04:58:20.364Z,99.99
2018-08-02T04:59:20.621Z,99.99
2018-08-02T05:00:20.621Z,99.99
2018-08-02T05:01:20.690Z,99.99
2018-08-02T05:02:20.624Z,99.99
2018-08-02T05:03:20.629Z,99.99
2018-08-02T05:04:20.373Z,99.99
2018-08-02T05:05:20.379Z,99.99
2018-08-02T05:06:20.387Z,99.99
2018-08-02T05:07:20.638Z,99.99
2018-08-02T05:08:20.641Z,99.99
2018-08-02T05:09:20.648Z,99.99
2018-08-02T05:10:20.646Z,99.99
2018-08-02T05:11:20.648Z,99.99
2018-08-02T05:12:20.658Z,99.99
2018-08-02T05:13:20.720Z,99.99
2018-08-02T05:14:20.672Z,99.99
2018-08-02T05:15:20.656Z,99.99
2018-08-02T05:16:20.664Z,99.99
2018-08-02T05:17:20.682Z,99.99
2018-08-02T05:18:20.670Z,99.99
2018-08-02T05:19:20.673Z,99.99
2018-08-02T05:20:20.447Z,99.99
2018-08-02T05:21:20.439Z,99.99
2018-08-02T05:22:20.750Z,99.99
2018-08-02T05:23:20.759Z,99.99
2018-08-02T05:24:20.694Z,99.99
2018-08-02T05:25:20.446Z,99.99
2018-08-02T05:26:20.825Z,99.99
2018-08-02T05:27:20.445Z,99.99
2018-08-02T05:28:20.704Z,99.99
2018-08-02T05:29:20.706Z,99.99
2018-08-02T05:30:20.453Z,99.99
2018-08-02T05:31:20.726Z,99.99
2018-08-02T05:32:20.497Z,99.99
2018-08-02T05:33:20.454Z,99.99
2018-08-02T05:34:20.641Z,99.99
2018-08-02T05:35:21.277Z,99.99
2018-08-02T05:36:21.902Z,99.99
2018-08-02T05:37:20.469Z,99.99
2018-08-02T05:38:20.476Z,99.99
2018-08-02T05:39:20.731Z,99.99
2018-08-02T05:40:20.734Z,99.99
2018-08-02T05:41:20.479Z,99.99
2018-08-02T05:42:20.480Z,99.99
2018-08-02T05:43:20.487Z,99.99
2018-08-02T05:44:20.742Z,99.99
2018-08-02T05:45:20.757Z,99.99
2018-08-02T05:46:20.545Z,99.99
2018-08-02T05:47:20.752Z,99.99
2018-08-02T05:48:20.761Z,99.99
2018-08-02T05:49:20.761Z,99.99
2018-08-02T05:50:20.772Z,99.99
2018-08-02T05:51:20.775Z,99.99
2018-08-02T05:52:20.514Z,99.99
2018-08-02T05:53:20.532Z,99.99
2018-08-02T05:54:20.520Z,99.99
2018-08-02T05:55:20.783Z,99.99
2018-08-02T05:56:20.536Z,99.99
2018-08-02T05:57:20.532Z,99.99
2018-08-02T05:58:20.799Z,99.99
2018-08-02T05:59:20.557Z,99.99
2018-08-02T06:00:20.805Z,99.99
2018-08-02T06:01:20.545Z,99.99
2018-08-02T06:02:20.553Z,99.99
2018-08-02T06:03:20.553Z,99.99
2018-08-02T06:04:20.820Z,99.99
2018-08-02T06:05:20.613Z,99.99
2018-08-02T06:06:20.815Z,99.99
2018-08-02T06:07:20.822Z,99.99
2018-08-02T06:08:20.832Z,99.99
2018-08-02T06:09:20.852Z,99.99
2018-08-02T06:10:20.584Z,99.99
2018-08-02T06:11:20.838Z,99.99
2018-08-02T06:12:20.842Z,99.99
2018-08-02T06:13:20.846Z,99.99
2018-08-02T06:14:20.595Z,99.99
2018-08-02T06:15:20.848Z,99.99
2018-08-02T06:16:20.596Z,99.99
2018-08-02T06:17:20.624Z,99.99
2018-08-02T06:18:21.025Z,99.99
2018-08-02T06:19:20.611Z,99.99
2018-08-02T06:20:20.874Z,99.99
2018-08-02T06:21:20.885Z,99.99
2018-08-02T06:22:20.621Z,99.99
2018-08-02T06:23:20.887Z,99.99
2018-08-02T06:24:20.631Z,99.99
2018-08-02T06:25:20.891Z,99.99
2018-08-02T06:26:20.899Z,99.99
2018-08-02T06:27:20.900Z,99.99
2018-08-02T06:28:20.736Z,99.99
2018-08-02T06:29:20.663Z,99.99
2018-08-02T06:30:20.704Z,99.99
2018-08-02T06:31:20.663Z,99.99
2018-08-02T06:32:20.965Z,99.99
2018-08-02T06:33:20.925Z,99.99
2018-08-02T06:34:20.933Z,99.99
2018-08-02T06:35:20.671Z,99.99
2018-08-02T06:36:20.679Z,99.99
2018-08-02T06:37:20.933Z,99.99
2018-08-02T06:38:20.966Z,99.26
2018-08-02T06:39:20.957Z,97.72
2018-08-02T06:40:20.975Z,99.46
2018-08-02T06:41:20.962Z,99.99
2018-08-02T06:42:20.702Z,99.99
2018-08-02T06:43:20.985Z,99.21
2018-08-02T06:44:20.972Z,99.02
2018-08-02T06:45:20.971Z,97.28
2018-08-02T06:46:20.751Z,97.52
2018-08-02T06:47:20.982Z,96.26
2018-08-02T06:48:22.590Z,89.76
2018-08-02T06:49:20.739Z,83.84
2018-08-02T06:50:20.741Z,79.94
2018-08-02T06:51:20.752Z,75.64
2018-08-02T06:52:21.024Z,72.34
2018-08-02T06:53:21.052Z,70.07
2018-08-02T06:54:20.766Z,68.26
2018-08-02T06:55:20.767Z,65.98
2018-08-02T06:56:20.794Z,64.55
2018-08-02T06:57:21.040Z,62.63
2018-08-02T06:58:21.058Z,60.7
2018-08-02T06:59:20.823Z,60.41
2018-08-02T07:00:20.806Z,59.95
2018-08-02T07:01:21.101Z,57.7
2018-08-02T07:02:21.080Z,58.97
2018-08-02T07:03:20.827Z,55.96
2018-08-02T07:04:21.094Z,55.38
2018-08-02T07:05:21.120Z,55.87
2018-08-02T07:06:20.868Z,55.57
2018-08-02T07:07:20.859Z,55.18
2018-08-02T07:08:21.114Z,55.41
2018-08-02T07:09:21.130Z,53.94
2018-08-02T07:10:21.141Z,54.58
2018-08-02T07:11:21.155Z,52.13
2018-08-02T07:12:21.294Z,51.59
2018-08-02T07:13:21.171Z,51.2
2018-08-02T07:14:20.917Z,51.52
2018-08-02T07:15:20.924Z,51.03
2018-08-02T07:16:20.933Z,48.89
2018-08-02T07:17:21.210Z,49.48
2018-08-02T07:18:20.953Z,49.77
2018-08-02T07:19:20.959Z,49.41
2018-08-02T07:20:20.968Z,47.83
2018-08-02T07:21:21.237Z,48.62
2018-08-02T07:22:21.000Z,50.66
2018-08-02T07:23:21.001Z,48.99
2018-08-02T07:24:21.265Z,50.34
2018-08-02T07:25:21.018Z,49.26
2018-08-02T07:26:21.309Z,48.5
2018-08-02T07:27:21.296Z,48.6
2018-08-02T07:28:21.307Z,48.74
2018-08-02T07:29:21.066Z,49.9
2018-08-02T07:30:21.321Z,52.13
2018-08-02T07:31:21.337Z,53.03
2018-08-02T07:32:21.090Z,54.74
2018-08-02T07:33:21.132Z,55.88
2018-08-02T07:34:21.109Z,56.25
2018-08-02T07:35:21.372Z,56.54
2018-08-02T07:36:21.376Z,55.47
2018-08-02T07:37:21.128Z,56.37
2018-08-02T07:38:21.135Z,55.35
2018-08-02T07:39:21.398Z,54.03
2018-08-02T07:40:21.148Z,50.44
2018-08-02T07:41:21.210Z,51.54
2018-08-02T07:42:21.423Z,51.34
2018-08-02T07:43:21.803Z,49.77
2018-08-02T07:44:21.441Z,50.76
2018-08-02T07:45:21.455Z,48.43
2018-08-02T07:46:21.202Z,48.52
2018-08-02T07:47:21.217Z,47.45
2018-08-02T07:48:21.224Z,47.27
2018-08-02T07:49:21.486Z,47.27
2018-08-02T07:50:21.495Z,47.69
2018-08-02T07:51:21.505Z,47.2
2018-08-02T07:52:21.518Z,46.41
2018-08-02T07:53:21.286Z,47.52
2018-08-02T07:54:21.281Z,46.04
2018-08-02T07:55:21.289Z,46.22
2018-08-02T07:56:21.385Z,48.08
2018-08-02T07:57:21.568Z,49.31
2018-08-02T07:58:21.570Z,48.8
2018-08-02T07:59:21.582Z,49.9
2018-08-02T08:00:21.335Z,46.86
2018-08-02T08:01:21.608Z,47.27
2018-08-02T08:02:21.623Z,47.96
2018-08-02T08:03:21.621Z,47.86
2018-08-02T08:04:21.389Z,48.92
2018-08-02T08:05:21.651Z,48.97
2018-08-02T08:06:21.653Z,49.07
2018-08-02T08:07:21.658Z,49.16
2018-08-02T08:08:21.691Z,49.73
2018-08-02T08:09:21.790Z,51.56
2018-08-02T08:10:21.704Z,52.93
2018-08-02T08:11:21.699Z,54.93
2018-08-02T08:12:21.762Z,55.88
2018-08-02T08:13:21.456Z,56.67
2018-08-02T08:14:21.710Z,57.03
2018-08-02T08:15:21.729Z,58.07
2018-08-02T08:16:21.522Z,57.07
2018-08-02T08:17:21.502Z,58.99
2018-08-02T08:18:21.774Z,60.52
2018-08-02T08:19:21.750Z,60.52
2018-08-02T08:20:21.857Z,59.13
2018-08-02T08:21:21.786Z,58.35
2018-08-02T08:22:21.528Z,59.52
2018-08-02T08:23:21.795Z,57.96
2018-08-02T08:24:21.847Z,59.1
2018-08-02T08:25:21.798Z,59.1
2018-08-02T08:26:21.552Z,60.14
2018-08-02T08:27:21.831Z,59.92
2018-08-02T08:28:21.826Z,60.7
2018-08-02T08:29:21.893Z,59.43
2018-08-02T08:30:21.836Z,59.75
2018-08-02T08:31:21.840Z,58.29
2018-08-02T08:32:21.602Z,58.78
2018-08-02T08:33:21.873Z,59.66
2018-08-02T08:34:21.641Z,59.92
2018-08-02T08:35:21.620Z,59.82
2018-08-02T08:36:21.686Z,59.82
2018-08-02T08:37:26.525Z,61.28
2018-08-02T08:38:21.912Z,58.2
2018-08-02T08:39:21.894Z,57.81
2018-08-02T08:40:21.898Z,58.2
2018-08-02T08:41:21.646Z,58.59
2018-08-02T08:42:21.651Z,58.85
2018-08-02T08:43:22.037Z,60.02
2018-08-02T08:44:21.919Z,59.92
2018-08-02T08:45:21.676Z,59.53
2018-08-02T08:46:21.931Z,59.72
2018-08-02T08:47:22.029Z,59.63
2018-08-02T08:48:21.949Z,60.38
2018-08-02T08:49:21.956Z,60.96
2018-08-02T08:50:21.960Z,61.25
2018-08-02T08:51:21.968Z,60.38
2018-08-02T08:52:22.159Z,60.18
2018-08-02T08:53:21.976Z,59.79
2018-08-02T08:54:21.981Z,58.85
2018-08-02T08:55:21.985Z,58.17
2018-08-02T08:56:22.013Z,57.78
2018-08-02T08:57:22.008Z,58.1
2018-08-02T08:58:22.015Z,57.81
2018-08-02T08:59:22.020Z,57.71
2018-08-02T09:00:22.014Z,59.3
2018-08-02T09:01:22.026Z,56.57
2018-08-02T09:02:22.038Z,56.4
2018-08-02T09:03:22.108Z,57.09
2018-08-02T09:04:22.053Z,57.45
2018-08-02T09:05:22.057Z,57.45
2018-08-02T09:06:21.811Z,57.9
2018-08-02T09:07:22.084Z,58.87
2018-08-02T09:08:22.080Z,60.14
2018-08-02T09:09:22.158Z,59.17
2018-08-02T09:10:21.873Z,57.35
2018-08-02T09:11:22.097Z,57.09
2018-08-02T09:12:21.853Z,57.74
2018-08-02T09:13:22.115Z,58.32
2018-08-02T09:14:22.163Z,58.81
2018-08-02T09:15:22.198Z,59.27
2018-08-02T09:16:21.873Z,60.41
2018-08-02T09:17:22.141Z,59.43
2018-08-02T09:18:22.166Z,60.31
2018-08-02T09:19:22.154Z,59.92
2018-08-02T09:20:22.167Z,59.14
2018-08-02T09:21:21.919Z,58.69
2018-08-02T09:22:21.913Z,57.32
2018-08-02T09:23:22.171Z,57.25
2018-08-02T09:24:22.177Z,56.76
2018-08-02T09:25:22.179Z,57.96
2018-08-02T09:26:22.202Z,58.94
2018-08-02T09:27:22.225Z,57.86
2018-08-02T09:28:22.204Z,57.99
2018-08-02T09:29:21.959Z,56.82
2018-08-02T09:30:22.219Z,56.85
2018-08-02T09:31:22.229Z,54.99
2018-08-02T09:32:22.105Z,53.63
2018-08-02T09:33:21.982Z,53.73
2018-08-02T09:34:22.010Z,53.31
2018-08-02T09:35:21.989Z,54.28
2018-08-02T09:36:22.259Z,53.89
2018-08-02T09:37:22.281Z,56.21
2018-08-02T09:38:22.284Z,54.94
2018-08-02T09:39:22.021Z,54.75
2018-08-02T09:40:22.289Z,55.52
2018-08-02T09:41:22.295Z,57.01
2018-08-02T09:42:22.322Z,54.19
2018-08-02T09:43:22.058Z,53.7
2018-08-02T09:44:22.341Z,53.8
2018-08-02T09:45:22.342Z,54.46
2018-08-02T09:46:22.478Z,55.07
2018-08-02T09:47:22.347Z,54.19
2018-08-02T09:48:22.084Z,55.07
2018-08-02T09:49:22.349Z,55.46
2018-08-02T09:50:22.100Z,55.62
2018-08-02T09:51:22.098Z,56.86
2018-08-02T09:52:22.373Z,57.64
2018-08-02T09:53:22.125Z,57.81
2018-08-02T09:54:22.412Z,57.9
2018-08-02T09:55:22.381Z,59.17
2018-08-02T09:56:22.425Z,57.9
2018-08-02T09:57:22.405Z,60.34
2018-08-02T09:58:22.406Z,60.05
2018-08-02T09:59:22.412Z,59.82
2018-08-02T10:00:22.159Z,59.82
2018-08-02T10:01:22.166Z,60.02
2018-08-02T10:02:22.420Z,61.67
2018-08-02T10:03:22.436Z,60.6
2018-08-02T10:04:22.450Z,60.5
2018-08-02T10:05:22.195Z,60.99
2018-08-02T10:06:22.193Z,60.31
2018-08-02T10:07:22.458Z,59.63
2018-08-02T10:08:22.201Z,62.16
2018-08-02T10:09:22.210Z,61.38
2018-08-02T10:10:22.470Z,59.95
2018-08-02T10:11:22.496Z,60.05
2018-08-02T10:12:22.483Z,60.82
2018-08-02T10:13:22.490Z,60.66
2018-08-02T10:14:22.498Z,58.03
2018-08-02T10:15:22.242Z,59.27
2018-08-02T10:16:22.504Z,58.97
2018-08-02T10:17:22.259Z,60.24
2018-08-02T10:18:22.519Z,58.78
2018-08-02T10:19:22.519Z,58.42
2018-08-02T10:20:22.531Z,58.51
2018-08-02T10:21:22.535Z,62.12
2018-08-02T10:22:22.341Z,61.63
2018-08-02T10:23:22.549Z,57.96
2018-08-02T10:24:23.096Z,56.62
2018-08-02T10:25:22.304Z,55.94
2018-08-02T10:26:22.580Z,57.01
2018-08-02T10:27:22.578Z,56.52
2018-08-02T10:28:22.329Z,56.92
2018-08-02T10:29:22.579Z,56.79
2018-08-02T10:30:22.392Z,57.37
2018-08-02T10:31:22.342Z,57.57
2018-08-02T10:32:22.612Z,57.93
2018-08-02T10:33:22.644Z,58.91
2018-08-02T10:34:22.369Z,59.66
2018-08-02T10:35:22.363Z,59.95
2018-08-02T10:36:22.632Z,60.11
2018-08-02T10:37:22.650Z,60.31
2018-08-02T10:38:22.396Z,61.08
2018-08-02T10:39:22.646Z,60.02
2018-08-02T10:40:22.407Z,60.14
2018-08-02T10:41:22.680Z,59.75
2018-08-02T10:42:22.419Z,59.36
2018-08-02T10:43:22.411Z,60.63
2018-08-02T10:44:22.678Z,60.82
2018-08-02T10:45:22.675Z,60.72
2018-08-02T10:46:22.686Z,61.11
2018-08-02T10:47:22.708Z,60.82
2018-08-02T10:48:22.698Z,61.41
2018-08-02T10:49:22.703Z,60.44
2018-08-02T10:50:22.458Z,59.2
2018-08-02T10:51:22.713Z,58.71
2018-08-02T10:52:22.717Z,59.59
2018-08-02T10:53:22.736Z,58.42
2018-08-02T10:54:22.484Z,58.71
2018-08-02T10:55:22.480Z,57.84
2018-08-02T10:56:22.736Z,60.46
2018-08-02T10:57:22.489Z,60.46
2018-08-02T10:58:22.493Z,60.27
2018-08-02T10:59:22.754Z,60.75
2018-08-02T11:00:22.520Z,60.56
2018-08-02T11:01:22.574Z,60.36
2018-08-02T11:02:22.786Z,59.78
2018-08-02T11:03:22.790Z,59.1
2018-08-02T11:04:22.554Z,58.74
2018-08-02T11:05:22.793Z,57.99
2018-08-02T11:06:22.543Z,57.96
2018-08-02T11:07:22.803Z,57.99
2018-08-02T11:08:22.879Z,57.79
2018-08-02T11:09:22.851Z,57.31
2018-08-02T11:10:22.820Z,57.6
2018-08-02T11:11:22.589Z,57.21
2018-08-02T11:12:22.588Z,57.53
2018-08-02T11:13:22.846Z,56.65
2018-08-02T11:14:22.855Z,55.12
2018-08-02T11:15:22.615Z,55.02
2018-08-02T11:16:22.601Z,54.73
2018-08-02T11:17:22.873Z,55.41
2018-08-02T11:18:22.873Z,55.97
2018-08-02T11:19:22.619Z,56.16
2018-08-02T11:20:22.878Z,57.01
2018-08-02T11:21:22.627Z,58.28
2018-08-02T11:22:22.639Z,57.21
2018-08-02T11:23:22.912Z,57.18
2018-08-02T11:24:22.652Z,57.5
2018-08-02T11:25:22.909Z,57.76
2018-08-02T11:26:22.921Z,59.03
2018-08-02T11:27:22.667Z,58.84
2018-08-02T11:28:22.996Z,60.59
2018-08-02T11:29:22.945Z,57.96
2018-08-02T11:30:22.684Z,57.4
2018-08-02T11:31:22.946Z,57.96
2018-08-02T11:32:22.720Z,58.06
2018-08-02T11:33:22.708Z,58.06
2018-08-02T11:34:22.966Z,57.76
2018-08-02T11:35:22.965Z,60.2
2018-08-02T11:36:22.719Z,58.06
2018-08-02T11:37:22.983Z,57.79
2018-08-02T11:38:23.000Z,57.89
2018-08-02T11:39:22.988Z,57.7
2018-08-02T11:40:22.745Z,58.58
2018-08-02T11:41:23.015Z,57.01
2018-08-02T11:42:22.751Z,57.31
2018-08-02T11:43:22.754Z,58.28
2018-08-02T11:44:23.022Z,58.25
2018-08-02T11:45:23.029Z,58.28
2018-08-02T11:46:23.057Z,57.31
2018-08-02T11:47:22.778Z,56.92
2018-08-02T11:48:22.790Z,57.01
2018-08-02T11:49:22.803Z,57.21
2018-08-02T11:50:22.798Z,57.5
2018-08-02T11:51:23.059Z,57.31
2018-08-02T11:52:23.170Z,57.6
2018-08-02T11:53:22.818Z,58.99
2018-08-02T11:54:23.082Z,58.22
2018-08-02T11:55:22.824Z,57.17
2018-08-02T11:56:23.296Z,57.75
2018-08-02T11:57:23.262Z,57.17
2018-08-02T11:58:22.852Z,56.68
2018-08-02T11:59:22.859Z,56.1
2018-08-02T12:00:22.866Z,56.48
2018-08-02T12:01:22.865Z,55.8
2018-08-02T12:02:22.867Z,56.68
2018-08-02T12:03:23.135Z,55.61
2018-08-02T12:04:23.140Z,56.68
2018-08-02T12:05:22.886Z,57.53
2018-08-02T12:06:23.157Z,57.04
2018-08-02T12:07:23.161Z,57.24
2018-08-02T12:08:22.933Z,56.75
2018-08-02T12:09:22.956Z,57.92
2018-08-02T12:10:23.171Z,56.75
2018-08-02T12:11:23.179Z,56.46
2018-08-02T12:12:22.938Z,54.24
2018-08-02T12:13:23.192Z,54.83
2018-08-02T12:14:22.940Z,55.12
2018-08-02T12:15:23.203Z,55.32
2018-08-02T12:16:23.337Z,57.53
2018-08-02T12:17:23.223Z,58.99
2018-08-02T12:18:23.229Z,58.77
2018-08-02T12:19:23.066Z,58.97
2018-08-02T12:20:23.426Z,58.77
2018-08-02T12:21:22.978Z,58.09
2018-08-02T12:22:23.249Z,57.7
2018-08-02T12:23:23.243Z,57.73
2018-08-02T12:24:23.252Z,56.97
2018-08-02T12:25:23.263Z,56.65
2018-08-02T12:26:23.270Z,56.95
2018-08-02T12:27:23.277Z,56.97
2018-08-02T12:28:23.025Z,57.46
2018-08-02T12:29:23.034Z,56.87
2018-08-02T12:30:23.039Z,57.65
2018-08-02T12:31:23.299Z,56.97
2018-08-02T12:32:23.306Z,57.26
2018-08-02T12:33:23.310Z,56.1
2018-08-02T12:34:23.315Z,56
2018-08-02T12:35:23.327Z,56.77
2018-08-02T12:36:23.330Z,56.95
2018-08-02T12:37:23.085Z,56.46
2018-08-02T12:38:23.422Z,56.68
2018-08-02T12:39:23.344Z,56.29
2018-08-02T12:40:23.444Z,56.68
2018-08-02T12:41:23.395Z,56.87
2018-08-02T12:42:23.480Z,57.75
2018-08-02T12:43:23.115Z,57.04
2018-08-02T12:44:23.373Z,57.24
2018-08-02T12:45:23.132Z,56.95
2018-08-02T12:46:23.132Z,57.21
2018-08-02T12:47:23.394Z,57.01
2018-08-02T12:48:23.141Z,57.11
2018-08-02T12:49:23.153Z,56.92
2018-08-02T12:50:23.405Z,56.04
2018-08-02T12:51:23.414Z,55.75
2018-08-02T12:52:23.187Z,55.46
2018-08-02T12:53:23.426Z,55.75